sensor_id;sensor_type;location;lat;lon;timestamp;noise_LAeq;noise_LA_min;noise_LA_max;noise_LA01;noise_LA95
67398;Laerm;57728;50.448;18.824;2023-02-15T00:01:43;33.87;32.63;35.00;;
67398;Laerm;57728;50.448;18.824;2023-02-15T00:03:48;33.85;32.66;34.89;;
67398;Laerm;57728;50.448;18.824;2023-02-15T00:05:50;33.85;32.76;35.00;;
67398;Laerm;57728;50.448;18.824;2023-02-15T00:07:52;33.89;32.73;34.88;;
67398;Laerm;57728;50.448;18.824;2023-02-15T00:09:53;33.88;32.56;35.08;;
67398;Laerm;57728;50.448;18.824;2023-02-15T00:11:55;33.88;32.79;35.10;;
67398;Laerm;57728;50.448;18.824;2023-02-15T00:13:57;33.88;32.79;35.08;;
67398;Laerm;57728;50.448;18.824;2023-02-15T00:16:04;33.88;32.72;35.15;;
67398;Laerm;57728;50.448;18.824;2023-02-15T00:18:06;33.89;32.76;35.02;;
67398;Laerm;57728;50.448;18.824;2023-02-15T00:20:08;33.88;32.89;34.90;;
67398;Laerm;57728;50.448;18.824;2023-02-15T00:22:10;33.89;32.69;34.92;;
67398;Laerm;57728;50.448;18.824;2023-02-15T00:24:16;33.87;32.69;35.12;;
67398;Laerm;57728;50.448;18.824;2023-02-15T00:26:18;33.89;32.68;34.91;;
67398;Laerm;57728;50.448;18.824;2023-02-15T00:28:20;33.89;32.88;34.92;;
67398;Laerm;57728;50.448;18.824;2023-02-15T00:30:23;33.88;32.44;35.08;;
67398;Laerm;57728;50.448;18.824;2023-02-15T00:32:25;33.87;32.77;35.01;;
67398;Laerm;57728;50.448;18.824;2023-02-15T00:34:28;33.87;32.54;35.05;;
67398;Laerm;57728;50.448;18.824;2023-02-15T00:36:32;33.85;32.62;35.08;;
67398;Laerm;57728;50.448;18.824;2023-02-15T00:38:35;33.87;32.82;35.18;;
67398;Laerm;57728;50.448;18.824;2023-02-15T00:40:37;33.86;32.56;35.03;;
67398;Laerm;57728;50.448;18.824;2023-02-15T00:42:39;33.85;32.67;34.96;;
67398;Laerm;57728;50.448;18.824;2023-02-15T00:44:40;33.86;32.68;34.97;;
67398;Laerm;57728;50.448;18.824;2023-02-15T00:46:42;33.85;32.63;34.87;;
67398;Laerm;57728;50.448;18.824;2023-02-15T00:48:45;33.86;32.66;34.97;;
67398;Laerm;57728;50.448;18.824;2023-02-15T00:50:59;33.89;32.80;35.00;;
67398;Laerm;57728;50.448;18.824;2023-02-15T00:53:01;33.90;32.79;35.00;;
67398;Laerm;57728;50.448;18.824;2023-02-15T00:55:04;33.87;32.66;34.94;;
67398;Laerm;57728;50.448;18.824;2023-02-15T00:57:05;33.86;32.81;34.91;;
67398;Laerm;57728;50.448;18.824;2023-02-15T00:59:08;33.85;32.78;34.90;;
67398;Laerm;57728;50.448;18.824;2023-02-15T01:01:16;33.84;32.64;35.33;;
67398;Laerm;57728;50.448;18.824;2023-02-15T01:03:20;33.84;32.77;35.06;;
67398;Laerm;57728;50.448;18.824;2023-02-15T01:05:22;33.91;32.64;45.29;;
67398;Laerm;57728;50.448;18.824;2023-02-15T01:07:24;33.85;32.77;34.94;;
67398;Laerm;57728;50.448;18.824;2023-02-15T01:09:27;33.85;32.83;35.18;;
67398;Laerm;57728;50.448;18.824;2023-02-15T01:11:28;33.87;32.81;34.82;;
67398;Laerm;57728;50.448;18.824;2023-02-15T01:13:34;33.85;32.69;34.91;;
67398;Laerm;57728;50.448;18.824;2023-02-15T01:15:36;33.86;32.77;34.91;;
67398;Laerm;57728;50.448;18.824;2023-02-15T01:17:39;33.85;32.70;34.81;;
67398;Laerm;57728;50.448;18.824;2023-02-15T01:19:41;33.88;32.62;35.03;;
67398;Laerm;57728;50.448;18.824;2023-02-15T01:21:43;33.91;32.77;34.97;;
67398;Laerm;57728;50.448;18.824;2023-02-15T01:23:45;33.91;32.72;34.95;;
67398;Laerm;57728;50.448;18.824;2023-02-15T01:25:48;33.89;32.78;35.11;;
67398;Laerm;57728;50.448;18.824;2023-02-15T01:27:49;33.89;32.78;34.97;;
67398;Laerm;57728;50.448;18.824;2023-02-15T01:29:51;33.86;32.77;34.97;;
67398;Laerm;57728;50.448;18.824;2023-02-15T01:31:53;33.83;32.75;34.81;;
67398;Laerm;57728;50.448;18.824;2023-02-15T01:33:55;33.83;32.74;34.86;;
67398;Laerm;57728;50.448;18.824;2023-02-15T01:35:58;33.83;32.79;34.88;;
67398;Laerm;57728;50.448;18.824;2023-02-15T01:38:00;33.84;32.81;34.88;;
67398;Laerm;57728;50.448;18.824;2023-02-15T01:40:07;33.84;32.43;34.86;;
67398;Laerm;57728;50.448;18.824;2023-02-15T01:42:12;33.84;32.62;35.18;;
67398;Laerm;57728;50.448;18.824;2023-02-15T01:44:56;33.82;32.68;34.97;;
67398;Laerm;57728;50.448;18.824;2023-02-15T01:46:58;33.97;32.79;38.51;;
67398;Laerm;57728;50.448;18.824;2023-02-15T01:49:10;33.83;32.75;35.16;;
67398;Laerm;57728;50.448;18.824;2023-02-15T01:51:25;33.82;32.72;34.95;;
67398;Laerm;57728;50.448;18.824;2023-02-15T01:53:43;33.84;32.72;35.10;;
67398;Laerm;57728;50.448;18.824;2023-02-15T01:58:00;33.85;32.69;34.94;;
67398;Laerm;57728;50.448;18.824;2023-02-15T02:00:07;33.86;32.64;35.11;;
67398;Laerm;57728;50.448;18.824;2023-02-15T02:02:19;33.86;32.69;35.13;;
67398;Laerm;57728;50.448;18.824;2023-02-15T02:04:41;33.85;32.69;34.94;;
67398;Laerm;57728;50.448;18.824;2023-02-15T02:06:50;33.83;32.70;34.95;;
67398;Laerm;57728;50.448;18.824;2023-02-15T02:08:54;33.84;32.68;34.95;;
67398;Laerm;57728;50.448;18.824;2023-02-15T02:10:57;33.83;32.65;34.94;;
67398;Laerm;57728;50.448;18.824;2023-02-15T02:13:04;33.84;32.75;34.99;;
67398;Laerm;57728;50.448;18.824;2023-02-15T02:15:08;33.82;32.67;34.92;;
67398;Laerm;57728;50.448;18.824;2023-02-15T02:36:14;33.91;32.71;38.19;;
67398;Laerm;57728;50.448;18.824;2023-02-15T02:41:37;33.82;32.69;34.86;;
67398;Laerm;57728;50.448;18.824;2023-02-15T02:46:52;33.96;32.49;46.20;;
67398;Laerm;57728;50.448;18.824;2023-02-15T02:48:57;34.03;32.54;38.55;;
67398;Laerm;57728;50.448;18.824;2023-02-15T02:50:58;33.96;32.64;37.35;;
67398;Laerm;57728;50.448;18.824;2023-02-15T02:53:00;34.07;32.78;43.81;;
67398;Laerm;57728;50.448;18.824;2023-02-15T02:57:30;33.97;32.96;38.14;;
67398;Laerm;57728;50.448;18.824;2023-02-15T02:59:42;33.91;32.79;40.45;;
67398;Laerm;57728;50.448;18.824;2023-02-15T03:02:29;33.91;32.75;36.87;;
67398;Laerm;57728;50.448;18.824;2023-02-15T03:04:38;34.00;32.77;40.97;;
67398;Laerm;57728;50.448;18.824;2023-02-15T03:07:05;34.11;32.72;46.51;;
67398;Laerm;57728;50.448;18.824;2023-02-15T03:11:36;33.89;32.77;43.31;;
67398;Laerm;57728;50.448;18.824;2023-02-15T03:13:39;33.93;32.55;45.95;;
67398;Laerm;57728;50.448;18.824;2023-02-15T03:15:45;33.92;32.77;37.51;;
67398;Laerm;57728;50.448;18.824;2023-02-15T03:18:06;34.00;32.93;46.54;;
67398;Laerm;57728;50.448;18.824;2023-02-15T03:20:20;34.14;32.61;46.13;;
67398;Laerm;57728;50.448;18.824;2023-02-15T03:22:42;34.25;32.66;40.63;;
67398;Laerm;57728;50.448;18.824;2023-02-15T03:27:26;34.08;32.66;43.53;;
67398;Laerm;57728;50.448;18.824;2023-02-15T03:29:34;33.88;32.53;38.86;;
67398;Laerm;57728;50.448;18.824;2023-02-15T03:31:43;33.92;32.82;37.70;;
67398;Laerm;57728;50.448;18.824;2023-02-15T03:33:59;33.88;32.76;42.03;;
67398;Laerm;57728;50.448;18.824;2023-02-15T03:36:21;33.82;32.71;34.84;;
67398;Laerm;57728;50.448;18.824;2023-02-15T03:38:44;33.88;32.71;35.38;;
67398;Laerm;57728;50.448;18.824;2023-02-15T03:40:54;33.92;32.56;36.84;;
67398;Laerm;57728;50.448;18.824;2023-02-15T03:45:56;33.85;32.74;34.95;;
67398;Laerm;57728;50.448;18.824;2023-02-15T03:48:03;33.85;32.46;35.20;;
67398;Laerm;57728;50.448;18.824;2023-02-15T03:52:37;33.90;32.62;35.83;;
67398;Laerm;57728;50.448;18.824;2023-02-15T03:54:40;33.85;32.76;36.11;;
67398;Laerm;57728;50.448;18.824;2023-02-15T03:56:48;33.85;32.73;34.99;;
67398;Laerm;57728;50.448;18.824;2023-02-15T03:59:10;33.89;32.68;36.19;;
67398;Laerm;57728;50.448;18.824;2023-02-15T04:02:18;33.93;32.80;37.00;;
67398;Laerm;57728;50.448;18.824;2023-02-15T04:04:37;34.06;32.62;37.82;;
67398;Laerm;57728;50.448;18.824;2023-02-15T04:06:39;33.95;32.55;37.28;;
67398;Laerm;57728;50.448;18.824;2023-02-15T04:08:41;33.97;32.39;36.85;;
67398;Laerm;57728;50.448;18.824;2023-02-15T04:11:01;33.91;32.66;36.08;;
67398;Laerm;57728;50.448;18.824;2023-02-15T04:13:03;33.97;32.65;40.76;;
67398;Laerm;57728;50.448;18.824;2023-02-15T04:15:05;33.93;32.54;40.18;;
67398;Laerm;57728;50.448;18.824;2023-02-15T04:17:26;33.92;32.87;35.33;;
67398;Laerm;57728;50.448;18.824;2023-02-15T04:19:27;34.56;32.82;48.20;;
67398;Laerm;57728;50.448;18.824;2023-02-15T04:21:47;33.90;32.65;36.55;;
67398;Laerm;57728;50.448;18.824;2023-02-15T04:24:10;34.59;32.55;47.05;;
67398;Laerm;57728;50.448;18.824;2023-02-15T04:26:30;34.03;32.82;38.69;;
67398;Laerm;57728;50.448;18.824;2023-02-15T04:28:31;33.93;32.81;38.55;;
67398;Laerm;57728;50.448;18.824;2023-02-15T04:30:33;33.89;32.76;34.99;;
67398;Laerm;57728;50.448;18.824;2023-02-15T04:32:36;35.44;32.74;57.36;;
67398;Laerm;57728;50.448;18.824;2023-02-15T04:34:37;34.18;32.36;38.58;;
67398;Laerm;57728;50.448;18.824;2023-02-15T04:36:40;34.17;32.72;39.18;;
67398;Laerm;57728;50.448;18.824;2023-02-15T04:38:42;33.90;32.77;35.19;;
67398;Laerm;57728;50.448;18.824;2023-02-15T04:40:43;34.08;32.83;38.10;;
67398;Laerm;57728;50.448;18.824;2023-02-15T04:42:48;34.12;32.68;38.57;;
67398;Laerm;57728;50.448;18.824;2023-02-15T04:44:50;36.48;32.72;46.40;;
67398;Laerm;57728;50.448;18.824;2023-02-15T04:46:51;33.95;32.83;36.75;;
67398;Laerm;57728;50.448;18.824;2023-02-15T04:48:55;33.93;32.63;36.49;;
67398;Laerm;57728;50.448;18.824;2023-02-15T04:50:56;34.10;32.77;37.58;;
67398;Laerm;57728;50.448;18.824;2023-02-15T04:52:58;34.11;32.74;36.22;;
67398;Laerm;57728;50.448;18.824;2023-02-15T04:55:00;34.03;32.58;37.84;;
67398;Laerm;57728;50.448;18.824;2023-02-15T04:57:02;33.92;32.67;35.38;;
67398;Laerm;57728;50.448;18.824;2023-02-15T04:59:03;33.97;32.85;38.36;;
67398;Laerm;57728;50.448;18.824;2023-02-15T05:01:05;34.45;32.76;42.45;;
67398;Laerm;57728;50.448;18.824;2023-02-15T05:03:07;34.08;32.80;42.03;;
67398;Laerm;57728;50.448;18.824;2023-02-15T05:05:08;34.02;32.70;41.03;;
67398;Laerm;57728;50.448;18.824;2023-02-15T05:07:14;33.93;32.64;37.55;;
67398;Laerm;57728;50.448;18.824;2023-02-15T05:09:16;34.05;32.67;37.92;;
67398;Laerm;57728;50.448;18.824;2023-02-15T05:11:18;34.14;32.78;39.11;;
67398;Laerm;57728;50.448;18.824;2023-02-15T05:13:20;33.91;32.69;35.89;;
67398;Laerm;57728;50.448;18.824;2023-02-15T05:15:22;34.10;32.76;39.87;;
67398;Laerm;57728;50.448;18.824;2023-02-15T05:17:23;33.87;32.69;34.99;;
67398;Laerm;57728;50.448;18.824;2023-02-15T05:19:26;33.98;32.80;37.75;;
67398;Laerm;57728;50.448;18.824;2023-02-15T05:21:27;33.95;32.53;35.83;;
67398;Laerm;57728;50.448;18.824;2023-02-15T05:23:29;34.38;32.84;41.55;;
67398;Laerm;57728;50.448;18.824;2023-02-15T05:25:31;34.48;32.70;43.86;;
67398;Laerm;57728;50.448;18.824;2023-02-15T05:27:51;34.60;32.79;40.62;;
67398;Laerm;57728;50.448;18.824;2023-02-15T05:30:12;34.04;32.74;38.49;;
67398;Laerm;57728;50.448;18.824;2023-02-15T05:32:15;36.07;32.78;44.72;;
67398;Laerm;57728;50.448;18.824;2023-02-15T05:34:16;34.55;32.90;40.48;;
67398;Laerm;57728;50.448;18.824;2023-02-15T05:36:18;34.12;32.65;42.44;;
67398;Laerm;57728;50.448;18.824;2023-02-15T05:38:20;34.87;32.98;39.41;;
67398;Laerm;57728;50.448;18.824;2023-02-15T05:40:21;34.20;32.98;38.61;;
67398;Laerm;57728;50.448;18.824;2023-02-15T05:42:23;37.83;32.89;48.85;;
67398;Laerm;57728;50.448;18.824;2023-02-15T05:44:25;34.84;32.90;39.98;;
67398;Laerm;57728;50.448;18.824;2023-02-15T05:46:26;34.47;32.77;40.75;;
67398;Laerm;57728;50.448;18.824;2023-02-15T05:48:28;34.64;33.11;40.38;;
67398;Laerm;57728;50.448;18.824;2023-02-15T05:50:31;34.23;32.98;39.33;;
67398;Laerm;57728;50.448;18.824;2023-02-15T05:52:35;35.17;33.03;47.25;;
67398;Laerm;57728;50.448;18.824;2023-02-15T05:54:36;36.94;32.81;47.65;;
67398;Laerm;57728;50.448;18.824;2023-02-15T05:56:38;38.17;33.13;51.33;;
67398;Laerm;57728;50.448;18.824;2023-02-15T05:58:41;35.89;32.78;49.68;;
67398;Laerm;57728;50.448;18.824;2023-02-15T06:00:43;34.39;33.09;40.43;;
67398;Laerm;57728;50.448;18.824;2023-02-15T06:02:45;34.44;32.80;40.79;;
67398;Laerm;57728;50.448;18.824;2023-02-15T06:04:46;34.26;32.96;42.58;;
67398;Laerm;57728;50.448;18.824;2023-02-15T06:06:48;35.46;32.99;41.59;;
67398;Laerm;57728;50.448;18.824;2023-02-15T06:08:50;34.34;32.99;38.47;;
67398;Laerm;57728;50.448;18.824;2023-02-15T06:10:52;34.27;32.97;41.39;;
67398;Laerm;57728;50.448;18.824;2023-02-15T06:12:53;34.81;33.15;39.41;;
67398;Laerm;57728;50.448;18.824;2023-02-15T06:14:55;38.38;33.07;59.16;;
67398;Laerm;57728;50.448;18.824;2023-02-15T06:16:57;35.65;32.94;52.52;;
67398;Laerm;57728;50.448;18.824;2023-02-15T06:18:58;37.06;33.05;60.83;;
67398;Laerm;57728;50.448;18.824;2023-02-15T06:21:02;34.44;32.92;43.56;;
67398;Laerm;57728;50.448;18.824;2023-02-15T06:23:03;34.43;32.80;43.90;;
67398;Laerm;57728;50.448;18.824;2023-02-15T06:25:05;34.56;32.84;41.28;;
67398;Laerm;57728;50.448;18.824;2023-02-15T06:27:09;34.70;32.82;40.45;;
67398;Laerm;57728;50.448;18.824;2023-02-15T06:29:11;34.16;32.93;40.29;;
67398;Laerm;57728;50.448;18.824;2023-02-15T06:31:12;34.59;33.06;40.87;;
67398;Laerm;57728;50.448;18.824;2023-02-15T06:33:14;34.69;33.00;42.47;;
67398;Laerm;57728;50.448;18.824;2023-02-15T06:35:16;35.50;33.03;47.65;;
67398;Laerm;57728;50.448;18.824;2023-02-15T06:37:17;34.90;32.92;42.22;;
67398;Laerm;57728;50.448;18.824;2023-02-15T06:39:20;34.80;33.03;41.00;;
67398;Laerm;57728;50.448;18.824;2023-02-15T06:41:21;34.41;32.86;39.23;;
67398;Laerm;57728;50.448;18.824;2023-02-15T06:43:23;34.69;32.83;39.67;;
67398;Laerm;57728;50.448;18.824;2023-02-15T06:45:25;34.75;32.93;40.94;;
67398;Laerm;57728;50.448;18.824;2023-02-15T06:47:27;36.61;32.95;56.02;;
67398;Laerm;57728;50.448;18.824;2023-02-15T06:49:28;36.90;33.09;51.30;;
67398;Laerm;57728;50.448;18.824;2023-02-15T06:51:31;34.95;33.24;49.17;;
67398;Laerm;57728;50.448;18.824;2023-02-15T06:53:32;35.73;33.41;46.25;;
67398;Laerm;57728;50.448;18.824;2023-02-15T06:55:34;34.57;33.11;39.54;;
67398;Laerm;57728;50.448;18.824;2023-02-15T06:57:36;35.32;33.24;41.98;;
67398;Laerm;57728;50.448;18.824;2023-02-15T06:59:37;36.11;33.31;45.76;;
67398;Laerm;57728;50.448;18.824;2023-02-15T07:01:39;35.40;33.12;39.92;;
67398;Laerm;57728;50.448;18.824;2023-02-15T07:03:41;35.75;33.26;42.97;;
67398;Laerm;57728;50.448;18.824;2023-02-15T07:05:42;35.01;33.20;41.21;;
67398;Laerm;57728;50.448;18.824;2023-02-15T07:07:45;35.09;33.32;42.09;;
67398;Laerm;57728;50.448;18.824;2023-02-15T07:09:47;34.88;33.27;39.65;;
67398;Laerm;57728;50.448;18.824;2023-02-15T07:11:49;35.03;33.11;40.62;;
67398;Laerm;57728;50.448;18.824;2023-02-15T07:14:09;35.29;33.10;42.13;;
67398;Laerm;57728;50.448;18.824;2023-02-15T07:16:12;34.63;33.05;40.71;;
67398;Laerm;57728;50.448;18.824;2023-02-15T07:18:14;34.09;32.92;36.06;;
67398;Laerm;57728;50.448;18.824;2023-02-15T07:20:21;34.52;32.88;41.38;;
67398;Laerm;57728;50.448;18.824;2023-02-15T07:22:24;34.15;32.86;41.00;;
67398;Laerm;57728;50.448;18.824;2023-02-15T07:24:25;34.45;33.00;40.15;;
67398;Laerm;57728;50.448;18.824;2023-02-15T07:26:27;34.48;33.04;45.76;;
67398;Laerm;57728;50.448;18.824;2023-02-15T07:28:32;34.49;32.99;43.03;;
67398;Laerm;57728;50.448;18.824;2023-02-15T07:30:33;34.52;32.98;42.87;;
67398;Laerm;57728;50.448;18.824;2023-02-15T07:32:37;34.56;33.06;41.82;;
67398;Laerm;57728;50.448;18.824;2023-02-15T07:35:00;34.53;33.01;42.08;;
67398;Laerm;57728;50.448;18.824;2023-02-15T07:37:02;34.41;33.10;38.88;;
67398;Laerm;57728;50.448;18.824;2023-02-15T07:39:03;34.46;33.04;39.13;;
67398;Laerm;57728;50.448;18.824;2023-02-15T07:41:12;40.13;32.94;64.79;;
67398;Laerm;57728;50.448;18.824;2023-02-15T07:43:14;34.27;33.03;39.44;;
67398;Laerm;57728;50.448;18.824;2023-02-15T07:45:15;34.05;32.93;35.21;;
67398;Laerm;57728;50.448;18.824;2023-02-15T07:47:17;34.27;33.02;51.09;;
67398;Laerm;57728;50.448;18.824;2023-02-15T07:49:19;34.37;32.99;46.31;;
67398;Laerm;57728;50.448;18.824;2023-02-15T07:51:20;34.63;32.94;41.22;;
67398;Laerm;57728;50.448;18.824;2023-02-15T07:53:26;35.01;33.19;40.03;;
67398;Laerm;57728;50.448;18.824;2023-02-15T07:55:28;34.55;32.92;40.94;;
67398;Laerm;57728;50.448;18.824;2023-02-15T07:57:29;34.38;33.09;36.82;;
67398;Laerm;57728;50.448;18.824;2023-02-15T07:59:31;34.84;32.88;43.60;;
67398;Laerm;57728;50.448;18.824;2023-02-15T08:01:36;34.47;33.04;40.99;;
67398;Laerm;57728;50.448;18.824;2023-02-15T08:03:37;34.54;32.75;40.25;;
67398;Laerm;57728;50.448;18.824;2023-02-15T08:05:43;34.52;32.93;38.46;;
67398;Laerm;57728;50.448;18.824;2023-02-15T08:07:45;34.31;33.02;45.74;;
67398;Laerm;57728;50.448;18.824;2023-02-15T08:09:46;34.19;32.81;39.37;;
67398;Laerm;57728;50.448;18.824;2023-02-15T08:11:49;34.60;33.08;41.12;;
67398;Laerm;57728;50.448;18.824;2023-02-15T08:14:11;34.47;32.83;39.88;;
67398;Laerm;57728;50.448;18.824;2023-02-15T08:16:12;34.32;33.04;38.26;;
67398;Laerm;57728;50.448;18.824;2023-02-15T08:18:14;34.92;33.08;42.77;;
67398;Laerm;57728;50.448;18.824;2023-02-15T08:20:16;34.70;32.97;40.22;;
67398;Laerm;57728;50.448;18.824;2023-02-15T08:22:17;34.87;33.27;39.94;;
67398;Laerm;57728;50.448;18.824;2023-02-15T08:24:22;35.43;33.29;48.02;;
67398;Laerm;57728;50.448;18.824;2023-02-15T08:26:25;37.71;32.83;49.74;;
67398;Laerm;57728;50.448;18.824;2023-02-15T08:28:28;34.12;32.92;39.71;;
67398;Laerm;57728;50.448;18.824;2023-02-15T08:30:30;34.32;32.89;39.20;;
67398;Laerm;57728;50.448;18.824;2023-02-15T08:32:31;34.01;32.82;35.51;;
67398;Laerm;57728;50.448;18.824;2023-02-15T08:34:38;34.33;32.87;40.38;;
67398;Laerm;57728;50.448;18.824;2023-02-15T08:36:42;34.41;32.93;45.28;;
67398;Laerm;57728;50.448;18.824;2023-02-15T08:38:46;34.22;32.69;40.87;;
67398;Laerm;57728;50.448;18.824;2023-02-15T08:40:48;38.71;32.89;50.24;;
67398;Laerm;57728;50.448;18.824;2023-02-15T08:42:50;34.81;33.00;40.19;;
67398;Laerm;57728;50.448;18.824;2023-02-15T08:44:51;34.62;33.11;37.72;;
67398;Laerm;57728;50.448;18.824;2023-02-15T08:46:53;34.21;32.72;43.35;;
67398;Laerm;57728;50.448;18.824;2023-02-15T08:48:57;34.42;33.20;40.75;;
67398;Laerm;57728;50.448;18.824;2023-02-15T08:50:59;34.66;33.08;41.26;;
67398;Laerm;57728;50.448;18.824;2023-02-15T08:53:05;34.94;32.96;44.85;;
67398;Laerm;57728;50.448;18.824;2023-02-15T08:55:07;35.45;33.09;45.78;;
67398;Laerm;57728;50.448;18.824;2023-02-15T08:57:08;35.48;33.03;49.05;;
67398;Laerm;57728;50.448;18.824;2023-02-15T08:59:16;35.85;32.98;50.54;;
67398;Laerm;57728;50.448;18.824;2023-02-15T09:01:22;34.65;32.97;40.98;;
67398;Laerm;57728;50.448;18.824;2023-02-15T09:03:25;35.08;32.80;44.48;;
67398;Laerm;57728;50.448;18.824;2023-02-15T09:05:27;34.22;32.91;43.28;;
67398;Laerm;57728;50.448;18.824;2023-02-15T09:07:30;34.66;32.80;44.58;;
67398;Laerm;57728;50.448;18.824;2023-02-15T09:09:33;34.61;33.10;45.09;;
67398;Laerm;57728;50.448;18.824;2023-02-15T09:11:42;34.59;33.08;39.11;;
67398;Laerm;57728;50.448;18.824;2023-02-15T09:13:44;34.58;32.99;38.54;;
67398;Laerm;57728;50.448;18.824;2023-02-15T09:15:47;35.01;33.17;53.69;;
67398;Laerm;57728;50.448;18.824;2023-02-15T09:17:49;34.44;33.23;36.81;;
67398;Laerm;57728;50.448;18.824;2023-02-15T09:19:51;34.71;33.30;39.52;;
67398;Laerm;57728;50.448;18.824;2023-02-15T09:21:53;34.51;33.10;40.10;;
67398;Laerm;57728;50.448;18.824;2023-02-15T09:24:02;34.57;33.10;41.97;;
67398;Laerm;57728;50.448;18.824;2023-02-15T09:26:12;34.68;32.98;40.11;;
67398;Laerm;57728;50.448;18.824;2023-02-15T09:28:13;34.56;33.14;43.19;;
67398;Laerm;57728;50.448;18.824;2023-02-15T09:30:15;34.39;33.06;36.50;;
67398;Laerm;57728;50.448;18.824;2023-02-15T09:32:17;34.56;33.02;38.45;;
67398;Laerm;57728;50.448;18.824;2023-02-15T09:34:22;34.14;32.92;37.31;;
67398;Laerm;57728;50.448;18.824;2023-02-15T09:36:36;34.30;32.88;39.79;;
67398;Laerm;57728;50.448;18.824;2023-02-15T09:38:39;34.11;32.94;41.21;;
67398;Laerm;57728;50.448;18.824;2023-02-15T09:43:33;34.90;32.86;43.49;;
67398;Laerm;57728;50.448;18.824;2023-02-15T09:58:32;34.01;32.50;38.46;;
67398;Laerm;57728;50.448;18.824;2023-02-15T10:00:49;33.95;32.52;39.06;;
67398;Laerm;57728;50.448;18.824;2023-02-15T10:27:20;33.91;32.52;38.11;;
67398;Laerm;57728;50.448;18.824;2023-02-15T10:29:38;35.57;32.49;48.49;;
67398;Laerm;57728;50.448;18.824;2023-02-15T10:34:51;34.00;32.69;43.78;;
67398;Laerm;57728;50.448;18.824;2023-02-15T10:47:54;34.09;32.68;40.06;;
67398;Laerm;57728;50.448;18.824;2023-02-15T10:53:05;34.30;32.79;37.71;;
67398;Laerm;57728;50.448;18.824;2023-02-15T11:07:47;34.64;32.67;50.07;;
67398;Laerm;57728;50.448;18.824;2023-02-15T11:12:29;34.37;32.88;47.01;;
67398;Laerm;57728;50.448;18.824;2023-02-15T11:15:01;34.21;32.75;38.84;;
67398;Laerm;57728;50.448;18.824;2023-02-15T11:17:33;34.13;32.63;37.59;;
67398;Laerm;57728;50.448;18.824;2023-02-15T11:20:15;35.46;32.77;48.58;;
67398;Laerm;57728;50.448;18.824;2023-02-15T11:22:19;35.81;32.65;50.09;;
67398;Laerm;57728;50.448;18.824;2023-02-15T11:24:26;35.08;32.67;52.32;;
67398;Laerm;57728;50.448;18.824;2023-02-15T11:26:41;37.63;32.60;52.16;;
67398;Laerm;57728;50.448;18.824;2023-02-15T11:31:17;34.05;32.72;42.30;;
67398;Laerm;57728;50.448;18.824;2023-02-15T11:33:34;33.90;32.67;39.69;;
67398;Laerm;57728;50.448;18.824;2023-02-15T11:38:23;34.12;32.73;40.94;;
67398;Laerm;57728;50.448;18.824;2023-02-15T11:42:35;34.42;32.73;43.17;;
67398;Laerm;57728;50.448;18.824;2023-02-15T11:47:37;34.10;32.55;43.48;;
67398;Laerm;57728;50.448;18.824;2023-02-15T11:49:39;34.37;32.82;38.47;;
67398;Laerm;57728;50.448;18.824;2023-02-15T11:51:41;34.61;32.78;42.70;;
67398;Laerm;57728;50.448;18.824;2023-02-15T11:53:46;34.04;32.89;38.90;;
67398;Laerm;57728;50.448;18.824;2023-02-15T11:55:49;34.38;32.60;42.45;;
67398;Laerm;57728;50.448;18.824;2023-02-15T12:00:41;34.41;32.70;45.13;;
67398;Laerm;57728;50.448;18.824;2023-02-15T12:02:50;34.57;32.92;42.63;;
67398;Laerm;57728;50.448;18.824;2023-02-15T12:05:21;34.66;33.14;42.94;;
67398;Laerm;57728;50.448;18.824;2023-02-15T12:07:36;34.56;33.13;38.74;;
67398;Laerm;57728;50.448;18.824;2023-02-15T12:09:48;34.86;32.96;44.58;;
67398;Laerm;57728;50.448;18.824;2023-02-15T12:11:51;34.71;33.11;43.57;;
67398;Laerm;57728;50.448;18.824;2023-02-15T12:14:04;34.60;33.06;41.41;;
67398;Laerm;57728;50.448;18.824;2023-02-15T12:16:12;34.80;33.00;40.63;;
67398;Laerm;57728;50.448;18.824;2023-02-15T12:18:39;34.68;32.91;39.38;;
67398;Laerm;57728;50.448;18.824;2023-02-15T12:20:43;35.22;33.10;48.79;;
67398;Laerm;57728;50.448;18.824;2023-02-15T12:25:36;34.47;32.92;41.31;;
67398;Laerm;57728;50.448;18.824;2023-02-15T12:27:43;34.86;33.14;44.73;;
67398;Laerm;57728;50.448;18.824;2023-02-15T12:31:59;35.37;33.15;45.25;;
67398;Laerm;57728;50.448;18.824;2023-02-15T12:34:16;34.90;33.25;43.64;;
67398;Laerm;57728;50.448;18.824;2023-02-15T12:36:45;34.57;32.94;39.84;;
67398;Laerm;57728;50.448;18.824;2023-02-15T12:39:28;34.65;33.10;43.51;;
67398;Laerm;57728;50.448;18.824;2023-02-15T12:41:30;34.94;33.07;41.43;;
67398;Laerm;57728;50.448;18.824;2023-02-15T12:43:36;35.63;33.08;45.41;;
67398;Laerm;57728;50.448;18.824;2023-02-15T12:45:38;35.29;33.18;49.63;;
67398;Laerm;57728;50.448;18.824;2023-02-15T12:47:41;35.62;33.12;54.90;;
67398;Laerm;57728;50.448;18.824;2023-02-15T12:49:44;36.09;32.94;57.68;;
67398;Laerm;57728;50.448;18.824;2023-02-15T12:54:32;35.00;33.08;41.11;;
67398;Laerm;57728;50.448;18.824;2023-02-15T12:56:35;34.45;32.94;38.35;;
67398;Laerm;57728;50.448;18.824;2023-02-15T12:58:39;34.84;32.98;41.46;;
67398;Laerm;57728;50.448;18.824;2023-02-15T13:00:46;35.20;32.66;48.86;;
67398;Laerm;57728;50.448;18.824;2023-02-15T13:02:53;34.60;33.05;49.45;;
67398;Laerm;57728;50.448;18.824;2023-02-15T13:05:10;34.53;33.00;45.97;;
67398;Laerm;57728;50.448;18.824;2023-02-15T13:07:18;34.54;32.99;40.16;;
67398;Laerm;57728;50.448;18.824;2023-02-15T13:11:33;34.94;33.34;49.58;;
67398;Laerm;57728;50.448;18.824;2023-02-15T13:13:53;35.02;33.21;43.70;;
67398;Laerm;57728;50.448;18.824;2023-02-15T13:16:07;35.16;33.23;48.03;;
67398;Laerm;57728;50.448;18.824;2023-02-15T13:18:19;35.11;33.17;47.92;;
67398;Laerm;57728;50.448;18.824;2023-02-15T13:20:27;35.11;33.20;46.84;;
67398;Laerm;57728;50.448;18.824;2023-02-15T13:22:44;36.10;33.32;53.08;;
67398;Laerm;57728;50.448;18.824;2023-02-15T13:24:55;35.22;33.34;42.98;;
67398;Laerm;57728;50.448;18.824;2023-02-15T13:26:59;35.01;33.44;43.13;;
67398;Laerm;57728;50.448;18.824;2023-02-15T13:29:30;34.88;33.27;43.85;;
67398;Laerm;57728;50.448;18.824;2023-02-15T13:31:32;34.48;33.11;38.44;;
67398;Laerm;57728;50.448;18.824;2023-02-15T13:33:37;34.88;33.24;40.19;;
67398;Laerm;57728;50.448;18.824;2023-02-15T13:35:58;35.11;33.28;40.47;;
67398;Laerm;57728;50.448;18.824;2023-02-15T13:41:03;35.21;33.36;42.95;;
67398;Laerm;57728;50.448;18.824;2023-02-15T13:46:05;35.62;33.45;46.71;;
67398;Laerm;57728;50.448;18.824;2023-02-15T13:48:25;39.99;33.14;65.53;;
67398;Laerm;57728;50.448;18.824;2023-02-15T13:55:46;35.02;33.09;49.56;;
67398;Laerm;57728;50.448;18.824;2023-02-15T14:14:35;35.12;33.20;48.21;;
67398;Laerm;57728;50.448;18.824;2023-02-15T14:16:58;35.02;33.25;42.56;;
67398;Laerm;57728;50.448;18.824;2023-02-15T14:19:19;34.91;33.13;41.28;;
67398;Laerm;57728;50.448;18.824;2023-02-15T14:21:54;35.39;33.20;55.03;;